createdAt,value
2018-07-21T00:00:06.067Z,60
2018-07-21T00:00:18.491Z,60
2018-07-21T00:00:31.071Z,61
2018-07-21T00:00:43.505Z,61
2018-07-21T00:00:55.930Z,61
2018-07-21T00:01:08.402Z,61
2018-07-21T00:01:20.849Z,60
2018-07-21T00:01:33.271Z,60
2018-07-21T00:01:45.666Z,60
2018-07-21T00:01:58.197Z,60
2018-07-21T00:02:10.619Z,61
2018-07-21T00:02:23.439Z,61
2018-07-21T00:02:36.237Z,61
2018-07-21T00:02:48.658Z,61
2018-07-21T00:03:01.071Z,61
2018-07-21T00:03:13.467Z,61
2018-07-21T00:03:25.863Z,61
2018-07-21T00:03:38.268Z,61
2018-07-21T00:03:50.816Z,60
2018-07-21T00:04:03.207Z,60
2018-07-21T00:04:15.617Z,60
2018-07-21T00:04:28.043Z,60
2018-07-21T00:04:40.471Z,61
2018-07-21T00:04:52.864Z,61
2018-07-21T00:05:05.271Z,61
2018-07-21T00:05:17.706Z,61
2018-07-21T00:05:30.172Z,61
2018-07-21T00:05:42.555Z,61
2018-07-21T00:05:54.948Z,61
2018-07-21T00:06:07.393Z,61
2018-07-21T00:06:19.798Z,61
2018-07-21T00:06:32.218Z,61
2018-07-21T00:06:44.645Z,61
2018-07-21T00:06:57.024Z,61
2018-07-21T00:07:09.422Z,61
2018-07-21T00:07:21.835Z,61
2018-07-21T00:07:34.345Z,61
2018-07-21T00:07:46.780Z,61
2018-07-21T00:07:59.197Z,61
2018-07-21T00:08:11.602Z,61
2018-07-21T00:08:24.005Z,61
2018-07-21T00:08:36.411Z,61
2018-07-21T00:08:48.887Z,61
2018-07-21T00:09:01.301Z,61
2018-07-21T00:09:13.910Z,61
2018-07-21T00:09:26.298Z,61
2018-07-21T00:09:38.682Z,61
2018-07-21T00:09:51.077Z,61
2018-07-21T00:10:03.482Z,61
2018-07-21T00:10:15.893Z,61
2018-07-21T00:10:28.305Z,61
2018-07-21T00:10:40.714Z,61
2018-07-21T00:10:53.274Z,61
2018-07-21T00:11:05.680Z,61
2018-07-21T00:11:18.123Z,61
2018-07-21T00:11:30.973Z,61
2018-07-21T00:11:43.376Z,61
2018-07-21T00:11:55.775Z,61
2018-07-21T00:12:08.219Z,61
2018-07-21T00:12:20.626Z,61
2018-07-21T00:12:33.023Z,61
2018-07-21T00:12:45.424Z,61
2018-07-21T00:12:57.997Z,61
2018-07-21T00:13:10.396Z,61
2018-07-21T00:13:22.794Z,61
2018-07-21T00:13:35.240Z,61
2018-07-21T00:13:47.669Z,61
2018-07-21T00:14:00.082Z,61
2018-07-21T00:14:12.841Z,61
2018-07-21T00:14:25.695Z,61
2018-07-21T00:14:38.131Z,61
2018-07-21T00:14:50.539Z,61
2018-07-21T00:15:02.961Z,61
2018-07-21T00:15:15.385Z,61
2018-07-21T00:15:27.955Z,61
2018-07-21T00:15:40.356Z,61
2018-07-21T00:15:52.752Z,61
2018-07-21T00:16:05.169Z,61
2018-07-21T00:16:17.549Z,61
2018-07-21T00:16:29.937Z,61
2018-07-21T00:16:42.357Z,61
2018-07-21T00:16:54.765Z,61
2018-07-21T00:17:07.165Z,61
2018-07-21T00:17:19.576Z,61
2018-07-21T00:17:32.125Z,61
2018-07-21T00:17:44.546Z,61
2018-07-21T00:17:56.998Z,61
2018-07-21T00:18:09.423Z,61
2018-07-21T00:18:21.859Z,61
2018-07-21T00:18:34.248Z,61
2018-07-21T00:18:46.631Z,61
2018-07-21T00:18:59.031Z,61
2018-07-21T00:19:11.469Z,61
2018-07-21T00:19:23.883Z,61
2018-07-21T00:19:36.285Z,61
2018-07-21T00:19:48.706Z,61
2018-07-21T00:20:01.094Z,61
2018-07-21T00:20:13.500Z,61
2018-07-21T00:20:25.893Z,61
2018-07-21T00:20:38.308Z,61
2018-07-21T00:20:50.711Z,61
2018-07-21T00:21:03.110Z,61
2018-07-21T00:21:15.533Z,61
2018-07-21T00:21:27.923Z,61
2018-07-21T00:21:40.333Z,61
2018-07-21T00:21:52.783Z,62
2018-07-21T00:22:05.185Z,62
2018-07-21T00:22:17.608Z,62
2018-07-21T00:22:30.559Z,62
2018-07-21T00:22:42.972Z,62
2018-07-21T00:22:55.375Z,62
2018-07-21T00:23:07.760Z,62
2018-07-21T00:23:20.161Z,62
2018-07-21T00:23:32.549Z,62
2018-07-21T00:23:44.953Z,62
2018-07-21T00:23:57.371Z,62
2018-07-21T00:24:09.767Z,62
2018-07-21T00:24:22.205Z,62
2018-07-21T00:24:34.626Z,62
2018-07-21T00:24:47.230Z,62
2018-07-21T00:24:59.645Z,62
2018-07-21T00:25:12.068Z,62
2018-07-21T00:25:24.541Z,62
2018-07-21T00:25:36.976Z,62
2018-07-21T00:25:49.386Z,62
2018-07-21T00:26:01.776Z,62
2018-07-21T00:26:14.184Z,62
2018-07-21T00:26:26.590Z,62
2018-07-21T00:26:38.975Z,62
2018-07-21T00:26:51.390Z,62
2018-07-21T00:27:03.771Z,62
2018-07-21T00:27:16.162Z,62
2018-07-21T00:27:28.545Z,62
2018-07-21T00:27:40.926Z,62
2018-07-21T00:27:53.350Z,62
2018-07-21T00:28:05.756Z,62
2018-07-21T00:28:18.145Z,62
2018-07-21T00:28:30.526Z,62
2018-07-21T00:28:42.927Z,62
2018-07-21T00:28:55.330Z,62
2018-07-21T00:29:07.725Z,62
2018-07-21T00:29:20.157Z,62
2018-07-21T00:29:32.569Z,62
2018-07-21T00:29:44.991Z,62
2018-07-21T00:29:57.396Z,62
2018-07-21T00:30:09.926Z,62
2018-07-21T00:30:22.323Z,62
2018-07-21T00:30:34.731Z,62
2018-07-21T00:30:47.356Z,62
2018-07-21T00:30:59.742Z,62
2018-07-21T00:31:12.176Z,63
2018-07-21T00:31:24.578Z,63
2018-07-21T00:31:37.002Z,63
2018-07-21T00:31:49.387Z,63
2018-07-21T00:32:01.931Z,63
2018-07-21T00:32:14.346Z,63
2018-07-21T00:32:26.780Z,63
2018-07-21T00:32:39.180Z,63
2018-07-21T00:32:51.594Z,63
2018-07-21T00:33:04.027Z,63
2018-07-21T00:33:16.432Z,63
2018-07-21T00:33:28.818Z,63
2018-07-21T00:33:41.203Z,63
2018-07-21T00:33:53.631Z,63
2018-07-21T00:34:06.035Z,63
2018-07-21T00:34:18.412Z,63
2018-07-21T00:34:30.850Z,63
2018-07-21T00:34:43.253Z,63
2018-07-21T00:34:55.645Z,63
2018-07-21T00:35:08.084Z,63
2018-07-21T00:35:20.484Z,63
2018-07-21T00:35:32.887Z,63
2018-07-21T00:35:45.281Z,63
2018-07-21T00:35:57.683Z,63
2018-07-21T00:36:10.103Z,63
2018-07-21T00:36:22.515Z,63
2018-07-21T00:36:34.924Z,63
2018-07-21T00:36:47.336Z,63
2018-07-21T00:36:59.796Z,63
2018-07-21T00:37:12.216Z,64
2018-07-21T00:37:24.613Z,64
2018-07-21T00:37:37.016Z,64
2018-07-21T00:37:49.417Z,64
2018-07-21T00:38:01.842Z,64
2018-07-21T00:38:14.256Z,64
2018-07-21T00:38:26.652Z,64
2018-07-21T00:38:39.040Z,64
2018-07-21T00:38:51.470Z,64
2018-07-21T00:39:03.960Z,64
2018-07-21T00:39:16.377Z,64
2018-07-21T00:39:28.771Z,64
2018-07-21T00:39:41.173Z,64
2018-07-21T00:39:53.561Z,64
2018-07-21T00:40:05.955Z,64
2018-07-21T00:40:18.347Z,64
2018-07-21T00:40:30.735Z,64
2018-07-21T00:40:43.122Z,64
2018-07-21T00:40:55.524Z,64
2018-07-21T00:41:07.963Z,64
2018-07-21T00:41:20.410Z,64
2018-07-21T00:41:32.795Z,64
2018-07-21T00:41:45.198Z,64
2018-07-21T00:41:57.730Z,64
2018-07-21T00:42:10.120Z,64
2018-07-21T00:42:22.514Z,64
2018-07-21T00:42:34.905Z,64
2018-07-21T00:42:47.291Z,64
2018-07-21T00:42:59.703Z,64
2018-07-21T00:43:12.127Z,64
2018-07-21T00:43:24.551Z,64
2018-07-21T00:43:36.948Z,64
2018-07-21T00:43:49.488Z,64
2018-07-21T00:44:01.894Z,64
2018-07-21T00:44:14.282Z,64
2018-07-21T00:44:26.718Z,64
2018-07-21T00:44:39.254Z,64
2018-07-21T00:44:51.649Z,64
2018-07-21T00:45:04.053Z,64
2018-07-21T00:45:16.454Z,64
2018-07-21T00:45:28.853Z,64
2018-07-21T00:45:41.246Z,64
2018-07-21T00:45:53.660Z,64
2018-07-21T00:46:06.064Z,64
2018-07-21T00:46:18.464Z,64
2018-07-21T00:46:30.856Z,65
2018-07-21T00:46:43.252Z,65
2018-07-21T00:46:55.668Z,65
2018-07-21T00:47:08.053Z,65
2018-07-21T00:47:20.465Z,65
2018-07-21T00:47:32.873Z,64
2018-07-21T00:47:45.278Z,64
2018-07-21T00:47:57.718Z,64
2018-07-21T00:48:10.118Z,64
2018-07-21T00:48:22.508Z,64
2018-07-21T00:48:34.906Z,64
2018-07-21T00:48:47.411Z,64
2018-07-21T00:48:59.813Z,64
2018-07-21T00:49:12.258Z,64
2018-07-21T00:49:24.671Z,64
2018-07-21T00:49:37.081Z,64
2018-07-21T00:49:49.470Z,64
2018-07-21T00:50:01.884Z,65
2018-07-21T00:50:14.283Z,65
2018-07-21T00:50:26.686Z,65
2018-07-21T00:50:39.130Z,65
2018-07-21T00:50:51.529Z,65
2018-07-21T00:51:03.911Z,65
2018-07-21T00:51:16.314Z,65
2018-07-21T00:51:28.699Z,65
2018-07-21T00:51:41.137Z,65
2018-07-21T00:51:53.547Z,65
2018-07-21T00:52:05.936Z,65
2018-07-21T00:52:18.332Z,65
2018-07-21T00:52:30.711Z,65
2018-07-21T00:52:43.125Z,65
2018-07-21T00:52:55.525Z,65
2018-07-21T00:53:07.929Z,65
2018-07-21T00:53:20.349Z,65
2018-07-21T00:53:32.746Z,65
2018-07-21T00:53:45.413Z,65
2018-07-21T00:53:57.791Z,65
2018-07-21T00:54:10.177Z,65
2018-07-21T00:54:22.592Z,66
2018-07-21T00:54:35.027Z,66
2018-07-21T00:54:47.454Z,66
2018-07-21T00:54:59.849Z,66
2018-07-21T00:55:12.277Z,66
2018-07-21T00:55:24.669Z,66
2018-07-21T00:55:37.067Z,66
2018-07-21T00:55:49.460Z,66
2018-07-21T00:56:01.895Z,66
2018-07-21T00:56:14.302Z,66
2018-07-21T00:56:26.704Z,66
2018-07-21T00:56:39.093Z,66
2018-07-21T00:56:51.477Z,66
2018-07-21T00:57:03.884Z,66
2018-07-21T00:57:16.714Z,66
2018-07-21T00:57:29.545Z,66
2018-07-21T00:57:42.088Z,66
2018-07-21T00:57:54.491Z,66
2018-07-21T00:58:06.903Z,66
2018-07-21T00:58:19.321Z,66
2018-07-21T00:58:31.728Z,66
2018-07-21T00:58:44.155Z,66
2018-07-21T00:58:56.546Z,66
2018-07-21T00:59:09.314Z,66
2018-07-21T00:59:21.701Z,66
2018-07-21T00:59:34.116Z,66
2018-07-21T00:59:46.528Z,66
2018-07-21T00:59:58.921Z,66
2018-07-21T01:00:11.371Z,66
2018-07-21T01:00:23.830Z,66
2018-07-21T01:00:36.319Z,66
2018-07-21T01:00:48.753Z,66
2018-07-21T01:01:01.187Z,66
2018-07-21T01:01:13.616Z,66
2018-07-21T01:01:26.022Z,66
2018-07-21T01:01:38.415Z,66
2018-07-21T01:01:50.821Z,66
2018-07-21T01:02:03.338Z,67
2018-07-21T01:02:15.738Z,67
2018-07-21T01:02:28.137Z,67
2018-07-21T01:02:40.552Z,67
2018-07-21T01:02:52.973Z,66
2018-07-21T01:03:05.373Z,66
2018-07-21T01:03:17.782Z,66
2018-07-21T01:03:30.183Z,66
2018-07-21T01:03:42.715Z,66
2018-07-21T01:03:55.115Z,66
2018-07-21T01:04:07.517Z,66
2018-07-21T01:04:19.937Z,66
2018-07-21T01:04:32.364Z,66
2018-07-21T01:04:44.781Z,66
2018-07-21T01:04:57.179Z,66
2018-07-21T01:05:09.575Z,66
2018-07-21T01:05:21.989Z,66
2018-07-21T01:05:34.381Z,66
2018-07-21T01:05:46.779Z,66
2018-07-21T01:05:59.182Z,66
2018-07-21T01:06:11.638Z,67
2018-07-21T01:06:24.040Z,67
2018-07-21T01:06:36.440Z,67
2018-07-21T01:06:48.970Z,67
2018-07-21T01:07:01.372Z,67
2018-07-21T01:07:13.778Z,67
2018-07-21T01:07:26.202Z,67
2018-07-21T01:07:38.610Z,67
2018-07-21T01:07:51.008Z,67
2018-07-21T01:08:03.438Z,67
2018-07-21T01:08:15.849Z,67
2018-07-21T01:08:28.251Z,67
2018-07-21T01:08:40.682Z,67
2018-07-21T01:08:53.084Z,67
2018-07-21T01:09:05.588Z,67
2018-07-21T01:09:17.987Z,67
2018-07-21T01:09:30.395Z,67
2018-07-21T01:09:42.815Z,67
2018-07-21T01:09:55.204Z,67
2018-07-21T01:10:07.600Z,67
2018-07-21T01:10:19.999Z,67
2018-07-21T01:10:32.395Z,67
2018-07-21T01:10:44.794Z,67
2018-07-21T01:10:57.428Z,67
2018-07-21T01:11:10.322Z,67
2018-07-21T01:11:23.293Z,67
2018-07-21T01:11:35.689Z,67
2018-07-21T01:11:48.105Z,67
2018-07-21T01:12:00.527Z,67
2018-07-21T01:12:12.948Z,67
2018-07-21T01:12:25.353Z,67
2018-07-21T01:12:37.761Z,67
2018-07-21T01:12:50.168Z,67
2018-07-21T01:13:02.663Z,67
2018-07-21T01:13:15.080Z,67
2018-07-21T01:13:27.495Z,67
2018-07-21T01:13:39.911Z,67
2018-07-21T01:13:52.350Z,67
2018-07-21T01:14:04.786Z,67
2018-07-21T01:14:17.193Z,67
2018-07-21T01:14:29.604Z,67
2018-07-21T01:14:42.008Z,67
2018-07-21T01:14:54.421Z,67
2018-07-21T01:15:06.894Z,67
2018-07-21T01:15:19.294Z,67
2018-07-21T01:15:31.705Z,67
2018-07-21T01:15:44.124Z,67
2018-07-21T01:15:56.546Z,67
2018-07-21T01:16:08.947Z,67
2018-07-21T01:16:21.352Z,67
2018-07-21T01:16:33.772Z,67
2018-07-21T01:16:46.191Z,67
2018-07-21T01:16:58.582Z,67
2018-07-21T01:17:11.036Z,67
2018-07-21T01:17:23.425Z,67
2018-07-21T01:17:35.822Z,67
2018-07-21T01:17:48.235Z,67
2018-07-21T01:18:00.849Z,67
2018-07-21T01:18:13.266Z,67
2018-07-21T01:18:25.679Z,67
2018-07-21T01:18:38.082Z,67
2018-07-21T01:18:50.467Z,67
2018-07-21T01:19:02.880Z,67
2018-07-21T01:19:15.276Z,67
2018-07-21T01:19:27.713Z,67
2018-07-21T01:19:40.117Z,67
2018-07-21T01:19:52.517Z,67
2018-07-21T01:20:05.014Z,67
2018-07-21T01:20:17.423Z,67
2018-07-21T01:20:29.793Z,67
2018-07-21T01:20:42.186Z,67
2018-07-21T01:20:54.590Z,67
2018-07-21T01:21:06.986Z,67
2018-07-21T01:21:19.557Z,67
2018-07-21T01:21:31.951Z,67
2018-07-21T01:21:44.330Z,67
2018-07-21T01:21:56.713Z,67
2018-07-21T01:22:09.134Z,67
2018-07-21T01:22:21.530Z,67
2018-07-21T01:22:33.912Z,67
2018-07-21T01:22:46.316Z,67
2018-07-21T01:22:58.725Z,67
2018-07-21T01:23:11.211Z,67
2018-07-21T01:23:23.613Z,67
2018-07-21T01:23:36.000Z,67
2018-07-21T01:23:48.393Z,67
2018-07-21T01:24:00.789Z,67
2018-07-21T01:24:13.188Z,67
2018-07-21T01:24:25.575Z,67
2018-07-21T01:24:38.170Z,67
2018-07-21T01:24:50.576Z,67
2018-07-21T01:25:02.995Z,67
2018-07-21T01:25:15.387Z,67
2018-07-21T01:25:27.766Z,67
2018-07-21T01:25:40.172Z,67
2018-07-21T01:25:52.587Z,67
2018-07-21T01:26:04.994Z,67
2018-07-21T01:26:17.380Z,67
2018-07-21T01:26:29.793Z,67
2018-07-21T01:26:42.194Z,67
2018-07-21T01:26:54.614Z,67
2018-07-21T01:27:07.027Z,67
2018-07-21T01:27:19.417Z,67
2018-07-21T01:27:31.807Z,67
2018-07-21T01:27:44.187Z,67
2018-07-21T01:27:56.586Z,67
2018-07-21T01:28:08.991Z,67
2018-07-21T01:28:21.373Z,67
2018-07-21T01:28:33.756Z,67
2018-07-21T01:28:46.158Z,67
2018-07-21T01:28:58.597Z,67
2018-07-21T01:29:11.022Z,67
2018-07-21T01:29:23.418Z,67
2018-07-21T01:29:35.821Z,67
2018-07-21T01:29:48.257Z,67
2018-07-21T01:30:00.646Z,67
2018-07-21T01:30:13.099Z,67
2018-07-21T01:30:25.494Z,67
2018-07-21T01:30:37.874Z,67
2018-07-21T01:30:50.372Z,67
2018-07-21T01:31:02.784Z,67
2018-07-21T01:31:15.171Z,67
2018-07-21T01:31:27.567Z,67
2018-07-21T01:31:39.949Z,67
2018-07-21T01:31:52.366Z,67
2018-07-21T01:32:04.854Z,67
2018-07-21T01:32:17.274Z,67
2018-07-21T01:32:29.687Z,67
2018-07-21T01:32:42.116Z,67
2018-07-21T01:32:54.500Z,67
2018-07-21T01:33:06.895Z,67
2018-07-21T01:33:19.313Z,67
2018-07-21T01:33:31.749Z,67
2018-07-21T01:33:44.153Z,67
2018-07-21T01:33:56.552Z,67
2018-07-21T01:34:08.959Z,67
2018-07-21T01:34:21.414Z,67
2018-07-21T01:34:33.793Z,67
2018-07-21T01:34:46.185Z,67
2018-07-21T01:34:58.597Z,67
2018-07-21T01:35:10.994Z,67
2018-07-21T01:35:23.394Z,68
2018-07-21T01:35:35.837Z,68
2018-07-21T01:35:48.236Z,68
2018-07-21T01:36:00.650Z,68
2018-07-21T01:36:13.108Z,68
2018-07-21T01:36:25.527Z,68
2018-07-21T01:36:37.923Z,68
2018-07-21T01:36:50.314Z,68
2018-07-21T01:37:02.803Z,68
2018-07-21T01:37:15.195Z,68
2018-07-21T01:37:27.584Z,68
2018-07-21T01:37:39.961Z,68
2018-07-21T01:37:52.347Z,68
2018-07-21T01:38:04.761Z,68
2018-07-21T01:38:17.151Z,68
2018-07-21T01:38:29.536Z,68
2018-07-21T01:38:41.922Z,68
2018-07-21T01:38:54.370Z,68
2018-07-21T01:39:06.781Z,68
2018-07-21T01:39:19.183Z,68
2018-07-21T01:39:31.584Z,68
2018-07-21T01:39:43.963Z,68
2018-07-21T01:39:56.358Z,68
2018-07-21T01:40:08.778Z,68
2018-07-21T01:40:21.159Z,68
2018-07-21T01:40:33.537Z,68
2018-07-21T01:40:45.918Z,68
2018-07-21T01:40:58.354Z,68
2018-07-21T01:41:10.751Z,68
2018-07-21T01:41:23.147Z,68
2018-07-21T01:41:35.549Z,68
2018-07-21T01:41:47.943Z,68
2018-07-21T01:42:00.342Z,68
2018-07-21T01:42:12.737Z,68
2018-07-21T01:42:25.126Z,68
2018-07-21T01:42:37.488Z,68
2018-07-21T01:42:49.866Z,68
2018-07-21T01:43:02.255Z,68
2018-07-21T01:43:14.672Z,68
2018-07-21T01:43:27.083Z,68
2018-07-21T01:43:39.720Z,68
2018-07-21T01:43:52.102Z,68
2018-07-21T01:44:04.485Z,68
2018-07-21T01:44:16.881Z,68
2018-07-21T01:44:29.273Z,68
2018-07-21T01:44:41.673Z,68
2018-07-21T01:44:54.065Z,68
2018-07-21T01:45:06.458Z,68
2018-07-21T01:45:18.845Z,68
2018-07-21T01:45:31.237Z,68
2018-07-21T01:45:43.633Z,68
2018-07-21T01:45:56.028Z,68
2018-07-21T01:46:08.419Z,68
2018-07-21T01:46:20.808Z,68
2018-07-21T01:46:33.197Z,68
2018-07-21T01:46:45.600Z,68
2018-07-21T01:46:57.993Z,68
2018-07-21T01:47:10.417Z,68
2018-07-21T01:47:22.827Z,68
2018-07-21T01:47:35.240Z,68
2018-07-21T01:47:47.640Z,68
2018-07-21T01:48:00.034Z,68
2018-07-21T01:48:12.426Z,68
2018-07-21T01:48:24.850Z,68
2018-07-21T01:48:37.257Z,68
2018-07-21T01:48:49.858Z,68
2018-07-21T01:49:02.296Z,68
2018-07-21T01:49:14.703Z,68
2018-07-21T01:49:27.184Z,68
2018-07-21T01:49:39.585Z,68
2018-07-21T01:49:51.985Z,68
2018-07-21T01:50:04.407Z,68
2018-07-21T01:50:16.802Z,68
2018-07-21T01:50:29.187Z,68
2018-07-21T01:50:41.590Z,68
2018-07-21T01:50:53.973Z,68
2018-07-21T01:51:06.357Z,68
2018-07-21T01:51:18.755Z,68
2018-07-21T01:51:31.174Z,68
2018-07-21T01:51:43.553Z,68
2018-07-21T01:51:55.952Z,68
2018-07-21T01:52:08.331Z,68
2018-07-21T01:52:20.744Z,68
2018-07-21T01:52:33.133Z,68
2018-07-21T01:52:45.553Z,68
2018-07-21T01:52:57.980Z,68
2018-07-21T01:53:10.380Z,68
2018-07-21T01:53:22.777Z,68
2018-07-21T01:53:35.191Z,68
2018-07-21T01:53:47.628Z,68
2018-07-21T01:54:00.024Z,68
2018-07-21T01:54:12.435Z,68
2018-07-21T01:54:25.074Z,68
2018-07-21T01:54:37.462Z,68
2018-07-21T01:54:49.859Z,68
2018-07-21T01:55:02.258Z,68
2018-07-21T01:55:14.697Z,68
2018-07-21T01:55:27.102Z,68
2018-07-21T01:55:39.500Z,68
2018-07-21T01:55:51.904Z,68
2018-07-21T01:56:04.323Z,68
2018-07-21T01:56:16.727Z,68
2018-07-21T01:56:29.170Z,68
2018-07-21T01:56:41.603Z,68
2018-07-21T01:56:53.990Z,68
2018-07-21T01:57:06.386Z,68
2018-07-21T01:57:18.787Z,68
2018-07-21T01:57:31.232Z,68
2018-07-21T01:57:43.719Z,68
2018-07-21T01:57:56.146Z,68
2018-07-21T01:58:08.534Z,68
2018-07-21T01:58:20.946Z,68
2018-07-21T01:58:33.333Z,68
2018-07-21T01:58:45.748Z,68
2018-07-21T01:58:58.175Z,68
2018-07-21T01:59:10.746Z,68
2018-07-21T01:59:23.307Z,68
2018-07-21T01:59:35.728Z,68
2018-07-21T01:59:48.111Z,68
2018-07-21T02:00:00.520Z,68
2018-07-21T02:00:12.948Z,68
2018-07-21T02:00:25.627Z,68
2018-07-21T02:00:38.059Z,68
2018-07-21T02:00:50.487Z,68
2018-07-21T02:01:02.914Z,68
2018-07-21T02:01:15.332Z,68
2018-07-21T02:01:27.720Z,68
2018-07-21T02:01:40.126Z,68
2018-07-21T02:01:52.529Z,68
2018-07-21T02:02:05.093Z,68
2018-07-21T02:02:17.490Z,68
2018-07-21T02:02:29.883Z,68
2018-07-21T02:02:42.275Z,68
2018-07-21T02:02:54.671Z,68
2018-07-21T02:03:07.091Z,68
2018-07-21T02:03:19.473Z,68
2018-07-21T02:03:31.905Z,68
2018-07-21T02:03:44.480Z,68
2018-07-21T02:03:56.893Z,68
2018-07-21T02:04:09.294Z,68
2018-07-21T02:04:21.729Z,68
2018-07-21T02:04:34.137Z,68
2018-07-21T02:04:46.521Z,68
2018-07-21T02:04:58.923Z,68
2018-07-21T02:05:11.332Z,68
2018-07-21T02:05:23.741Z,68
2018-07-21T02:05:36.145Z,68
2018-07-21T02:05:48.547Z,68
2018-07-21T02:06:00.945Z,68
2018-07-21T02:06:13.344Z,68
2018-07-21T02:06:25.741Z,68
2018-07-21T02:06:38.145Z,68
2018-07-21T02:06:50.530Z,68
2018-07-21T02:07:02.925Z,68
2018-07-21T02:07:15.371Z,68
2018-07-21T02:07:27.752Z,68
2018-07-21T02:07:40.137Z,68
2018-07-21T02:07:52.526Z,68
2018-07-21T02:08:04.936Z,68
2018-07-21T02:08:17.332Z,68
2018-07-21T02:08:29.739Z,68
2018-07-21T02:08:42.144Z,68
2018-07-21T02:08:54.574Z,68
2018-07-21T02:09:06.963Z,68
2018-07-21T02:09:19.365Z,68
2018-07-21T02:09:31.764Z,69
2018-07-21T02:09:44.149Z,69
2018-07-21T02:09:56.555Z,69
2018-07-21T02:10:08.953Z,69
2018-07-21T02:10:21.367Z,69
2018-07-21T02:10:33.785Z,69
2018-07-21T02:10:46.179Z,69
2018-07-21T02:10:58.716Z,69
2018-07-21T02:11:11.108Z,69
2018-07-21T02:11:23.549Z,69
2018-07-21T02:11:36.121Z,69
2018-07-21T02:11:48.516Z,69
2018-07-21T02:12:00.919Z,69
2018-07-21T02:12:13.323Z,69
2018-07-21T02:12:25.725Z,69
2018-07-21T02:12:38.570Z,69
2018-07-21T02:12:51.708Z,69
2018-07-21T02:13:04.312Z,69
2018-07-21T02:13:16.720Z,69
2018-07-21T02:13:29.111Z,69
2018-07-21T02:13:41.531Z,69
2018-07-21T02:13:53.927Z,69
2018-07-21T02:14:06.334Z,69
2018-07-21T02:14:18.756Z,69
2018-07-21T02:14:31.217Z,69
2018-07-21T02:14:43.638Z,69
2018-07-21T02:14:56.051Z,69
2018-07-21T02:15:08.546Z,69
2018-07-21T02:15:20.973Z,69
2018-07-21T02:15:33.378Z,69
2018-07-21T02:15:45.786Z,69
2018-07-21T02:15:58.205Z,69
2018-07-21T02:16:10.627Z,69
2018-07-21T02:16:23.031Z,69
2018-07-21T02:16:35.462Z,69
2018-07-21T02:16:47.878Z,69
2018-07-21T02:17:00.297Z,69
2018-07-21T02:17:12.717Z,69
2018-07-21T02:17:25.142Z,69
2018-07-21T02:17:37.744Z,69
2018-07-21T02:17:50.138Z,69
2018-07-21T02:18:02.553Z,69
2018-07-21T02:18:14.960Z,69
2018-07-21T02:18:27.367Z,69
2018-07-21T02:18:39.754Z,69
2018-07-21T02:18:52.166Z,69
2018-07-21T02:19:04.577Z,69
2018-07-21T02:19:17.032Z,69
2018-07-21T02:19:29.464Z,69
2018-07-21T02:19:41.962Z,69
2018-07-21T02:19:54.389Z,69
2018-07-21T02:20:06.819Z,69
2018-07-21T02:20:19.219Z,69
2018-07-21T02:20:31.607Z,69
2018-07-21T02:20:43.990Z,69
2018-07-21T02:20:56.373Z,69
2018-07-21T02:21:08.779Z,69
2018-07-21T02:21:21.168Z,69
2018-07-21T02:21:33.567Z,69
2018-07-21T02:21:46.107Z,69
2018-07-21T02:21:58.512Z,69
2018-07-21T02:22:10.929Z,69
2018-07-21T02:22:23.330Z,69
2018-07-21T02:22:36.158Z,69
2018-07-21T02:22:49.237Z,69
2018-07-21T02:23:01.629Z,69
2018-07-21T02:23:14.071Z,69
2018-07-21T02:23:26.475Z,69
2018-07-21T02:23:38.935Z,69
2018-07-21T02:23:52.174Z,69
2018-07-21T02:24:04.801Z,69
2018-07-21T02:24:17.213Z,69
2018-07-21T02:24:29.701Z,69
2018-07-21T02:24:42.562Z,69
2018-07-21T02:24:55.080Z,69
2018-07-21T02:25:07.491Z,69
2018-07-21T02:25:19.885Z,69
2018-07-21T02:25:32.297Z,69
2018-07-21T02:25:44.878Z,69
2018-07-21T02:25:57.293Z,69
2018-07-21T02:26:09.733Z,69
2018-07-21T02:26:22.146Z,69
2018-07-21T02:26:34.567Z,69
2018-07-21T02:26:47.006Z,69
2018-07-21T02:26:59.440Z,69
2018-07-21T02:27:11.931Z,69
2018-07-21T02:27:24.312Z,69
2018-07-21T02:27:36.731Z,69
2018-07-21T02:27:49.144Z,69
2018-07-21T02:28:01.615Z,69
2018-07-21T02:28:14.024Z,69
2018-07-21T02:28:26.448Z,69
2018-07-21T02:28:38.857Z,69
2018-07-21T02:28:51.242Z,69
2018-07-21T02:29:03.657Z,69
2018-07-21T02:29:16.053Z,69
2018-07-21T02:29:28.465Z,69
2018-07-21T02:29:40.867Z,69
2018-07-21T02:29:53.266Z,69
2018-07-21T02:30:05.710Z,69
2018-07-21T02:30:18.139Z,69
2018-07-21T02:30:30.583Z,69
2018-07-21T02:30:43.094Z,69
2018-07-21T02:30:55.755Z,69
2018-07-21T02:31:08.169Z,69
2018-07-21T02:31:20.660Z,69
2018-07-21T02:31:33.092Z,69
2018-07-21T02:31:45.492Z,69
2018-07-21T02:31:58.031Z,69
2018-07-21T02:32:10.536Z,69
2018-07-21T02:32:23.003Z,69
2018-07-21T02:32:35.436Z,69
2018-07-21T02:32:47.870Z,69
2018-07-21T02:33:00.307Z,69
2018-07-21T02:33:12.805Z,69
2018-07-21T02:33:25.265Z,70
2018-07-21T02:33:37.708Z,70
2018-07-21T02:33:50.150Z,70
2018-07-21T02:34:02.604Z,70
2018-07-21T02:34:15.029Z,70
2018-07-21T02:34:27.465Z,70
2018-07-21T02:34:39.875Z,70
2018-07-21T02:34:52.299Z,70
2018-07-21T02:35:04.718Z,70
2018-07-21T02:35:17.157Z,70
2018-07-21T02:35:29.581Z,70
2018-07-21T02:35:41.998Z,70
2018-07-21T02:35:54.396Z,69
2018-07-21T02:36:07.044Z,69
2018-07-21T02:36:19.469Z,69
2018-07-21T02:36:31.902Z,69
2018-07-21T02:36:44.319Z,69
2018-07-21T02:36:56.720Z,69
2018-07-21T02:37:09.198Z,69
2018-07-21T02:37:21.609Z,69
2018-07-21T02:37:34.048Z,70
2018-07-21T02:37:46.470Z,70
2018-07-21T02:37:58.877Z,70
2018-07-21T02:38:11.299Z,70
2018-07-21T02:38:23.708Z,70
2018-07-21T02:38:36.170Z,70
2018-07-21T02:38:48.613Z,70
2018-07-21T02:39:01.059Z,70
2018-07-21T02:39:13.483Z,70
2018-07-21T02:39:25.902Z,69
2018-07-21T02:39:38.313Z,69
2018-07-21T02:39:50.737Z,69
2018-07-21T02:40:03.155Z,69
2018-07-21T02:40:15.556Z,69
2018-07-21T02:40:27.960Z,69
2018-07-21T02:40:40.369Z,69
2018-07-21T02:40:52.807Z,69
2018-07-21T02:41:05.322Z,70
2018-07-21T02:41:17.749Z,70
2018-07-21T02:41:30.153Z,70
2018-07-21T02:41:42.570Z,70
2018-07-21T02:41:54.980Z,70
2018-07-21T02:42:07.404Z,70
2018-07-21T02:42:19.866Z,70
2018-07-21T02:42:32.290Z,70
2018-07-21T02:42:44.725Z,70
2018-07-21T02:42:57.156Z,70
2018-07-21T02:43:09.565Z,70
2018-07-21T02:43:21.965Z,70
2018-07-21T02:43:34.444Z,70
2018-07-21T02:43:47.083Z,70
2018-07-21T02:43:59.571Z,70
2018-07-21T02:44:12.013Z,70
2018-07-21T02:44:24.434Z,71
2018-07-21T02:44:37.041Z,71
2018-07-21T02:44:49.456Z,71
2018-07-21T02:45:01.883Z,71
2018-07-21T02:45:14.299Z,71
2018-07-21T02:45:26.843Z,71
2018-07-21T02:45:40.007Z,71
2018-07-21T02:45:53.157Z,71
2018-07-21T02:46:05.611Z,71
2018-07-21T02:46:18.046Z,71
2018-07-21T02:46:30.494Z,71
2018-07-21T02:46:42.918Z,71
2018-07-21T02:46:55.343Z,71
2018-07-21T02:47:07.772Z,71
2018-07-21T02:47:20.195Z,71
2018-07-21T02:47:32.625Z,71
2018-07-21T02:47:45.044Z,71
2018-07-21T02:47:57.460Z,71
2018-07-21T02:48:09.902Z,71
2018-07-21T02:48:22.309Z,71
2018-07-21T02:48:34.760Z,71
2018-07-21T02:48:47.544Z,72
2018-07-21T02:48:59.940Z,72
2018-07-21T02:49:12.363Z,72
2018-07-21T02:49:24.835Z,72
2018-07-21T02:49:37.273Z,72
2018-07-21T02:49:49.898Z,72
2018-07-21T02:50:02.314Z,72
2018-07-21T02:50:14.742Z,72
2018-07-21T02:50:27.202Z,72
2018-07-21T02:50:39.638Z,72
2018-07-21T02:50:52.049Z,72
2018-07-21T02:51:04.473Z,72
2018-07-21T02:51:16.893Z,71
2018-07-21T02:51:29.326Z,71
2018-07-21T02:51:41.752Z,71
2018-07-21T02:51:54.190Z,71
2018-07-21T02:52:06.649Z,72
2018-07-21T02:52:19.074Z,72
2018-07-21T02:52:31.485Z,72
2018-07-21T02:52:43.890Z,72
2018-07-21T02:52:56.310Z,72
2018-07-21T02:53:08.789Z,72
2018-07-21T02:53:21.223Z,72
2018-07-21T02:53:33.722Z,72
2018-07-21T02:53:46.190Z,72
2018-07-21T02:53:58.608Z,72
2018-07-21T02:54:11.013Z,72
2018-07-21T02:54:23.408Z,72
2018-07-21T02:54:35.837Z,72
2018-07-21T02:54:48.249Z,71
2018-07-21T02:55:00.847Z,71
2018-07-21T02:55:13.266Z,71
2018-07-21T02:55:25.717Z,71
2018-07-21T02:55:38.124Z,71
2018-07-21T02:55:50.545Z,71
2018-07-21T02:56:02.994Z,71
2018-07-21T02:56:15.408Z,71
2018-07-21T02:56:27.825Z,72
2018-07-21T02:56:40.242Z,72
2018-07-21T02:56:52.652Z,72
2018-07-21T02:57:05.078Z,72
2018-07-21T02:57:17.481Z,72